ADDS TAF Data INFO
IDs: Format: Raw Decoded Include METARs

Data at: 1222 UTC 22 Feb 2018

KTPA 221123Z 2212/2318 07005KT P6SM SKC
  FM221400 10007KT P6SM SCT025
  FM221800 11007KT P6SM SCT050
  FM230200 08005KT P6SM SKC
  FM231400 11007KT P6SM SCT025